Portada
METAR-TAF:

METAR-TAF

Aeroports :

Luang Prabang, Laos

latitud: 19-53N, longitud: 102-08E, altitud: 305 m

Observació

L'informe es va fer fa 56 minuts, a les 04:00 UTC
Vent 2 kt del Est/Nord-Est
Temperatura 24°C
Humitat 61%
Pressió 1019 hPa
Visibilitat 10 km o més
Escasses núvols a una alçada de 1700 ft
Escasses núvols a una alçada de 6000 ft

METAR: VLLB 210400Z 06002KT 9999 FEW017 FEW060 24/16 Q1019 NOSIG

Hora: 11:56 (04:56 UTC)

Pronòstic

L'informe es va fer fa 5 hores i 56 minuts, a les 23:00 UTC
Pronòstic vàlid del 21 a les 00 UTC al 21 a les 24 UTC
Vent 4 kt del Nord
Visibilitat 10 km o més
Núvols disperses a una alçada de 2000 ft
Escasses núvols a una alçada de 6000 ft

TAF: VLLB 202300Z 2100/2124 36004KT 9999 SCT020 FEW060

Observacions i pronòstics meteorològics de més de 4000 aeroports (METAR i TAF).

Les estacions disponibles són els punts grocs i vermells al mapa.

Posi el ratolí al punt desitjat per veure el nom de l'estació.

Feu clic per veure les observacions i els pronòstics meteorològics.

Per canviar el mapa: feu clic els botons verds amb una creu de color negre per apropar; al botó verd amb un guió per allunyar la imatge; o en les fletxes verdes per a mapes adjacents.


METAR-TAF: